Time;durP1;ratioP1;P1;durP2;ratioP2;P2;SDS_P1;SDS_P2;PMS_P1;PMS_P2;Temp;Humidity;BMP_temperature;BMP_pressure;BME280_temperature;BME280_humidity;BME280_pressure;Samples;Min_cycle;Max_cycle;Signal;HPM_P1;HPM_P2
2023/07/25 00:00:32;;;;;;;10.10;3.90;;;14.10;99.90;;;;;;4931051;28;20101;-78
2023/07/25 00:02:57;;;;;;;8.40;3.75;;;14.10;99.90;;;;;;4934824;28;20035;-78
2023/07/25 00:05:23;;;;;;;12.70;4.25;;;14.10;99.90;;;;;;4943806;28;20442;-78
2023/07/25 00:07:48;;;;;;;6.68;3.85;;;14.10;99.90;;;;;;4935734;28;20506;-78
2023/07/25 00:10:15;;;;;;;8.05;3.65;;;14.10;99.90;;;;;;4946531;28;20043;-78
2023/07/25 00:12:41;;;;;;;10.13;3.95;;;14.10;99.90;;;;;;4957893;28;20035;-78
2023/07/25 00:15:07;;;;;;;5.70;3.47;;;14.10;99.90;;;;;;4934881;28;20050;-78
2023/07/25 00:17:32;;;;;;;7.72;3.47;;;14.10;99.90;;;;;;4952721;28;20521;-78
2023/07/25 00:19:58;;;;;;;10.57;3.85;;;14.10;99.90;;;;;;4930316;28;20124;-78
2023/07/25 00:22:23;;;;;;;9.23;3.42;;;14.10;99.90;;;;;;4914041;28;20036;-78
2023/07/25 00:24:49;;;;;;;7.72;3.92;;;14.10;99.90;;;;;;4945520;28;20044;-77
2023/07/25 00:27:15;;;;;;;7.00;3.20;;;14.10;99.90;;;;;;4929875;28;20133;-77
2023/07/25 00:29:41;;;;;;;9.32;4.15;;;14.00;99.90;;;;;;4964024;28;20048;-77
2023/07/25 00:32:07;;;;;;;8.00;4.38;;;14.00;99.90;;;;;;4979690;28;20043;-77
2023/07/25 00:34:32;;;;;;;10.32;3.92;;;14.00;99.90;;;;;;4945978;28;20078;-77
2023/07/25 00:36:58;;;;;;;8.90;3.80;;;14.00;99.90;;;;;;4932650;28;20483;-77
2023/07/25 00:39:24;;;;;;;;;;;14.00;99.90;;;;;;4932196;28;20038;-78
2023/07/25 00:41:49;;;;;;;8.10;3.80;;;13.90;99.90;;;;;;4934816;28;19980;-78
2023/07/25 00:44:15;;;;;;;7.78;3.60;;;13.90;99.90;;;;;;4984278;28;20043;-78
2023/07/25 00:46:42;;;;;;;11.48;3.70;;;13.80;99.90;;;;;;4929496;28;20491;-78
2023/07/25 00:49:08;;;;;;;9.77;4.07;;;13.80;99.90;;;;;;4947333;28;20039;-78
2023/07/25 00:51:34;;;;;;;7.15;4.10;;;13.80;99.90;;;;;;4926831;28;20044;-78
2023/07/25 00:54:00;;;;;;;10.27;3.90;;;13.80;99.90;;;;;;4925253;28;20072;-78
2023/07/25 00:56:26;;;;;;;8.52;4.22;;;13.80;99.90;;;;;;4951535;28;20529;-78
2023/07/25 00:58:53;;;;;;;9.80;3.92;;;13.80;99.90;;;;;;4940308;28;20035;-77
2023/07/25 01:01:19;;;;;;;12.95;4.70;;;13.80;99.90;;;;;;4948639;28;20418;-78
2023/07/25 01:03:45;;;;;;;10.23;3.88;;;13.70;99.90;;;;;;4960531;28;20047;-78
2023/07/25 01:06:15;;;;;;;10.40;4.18;;;13.70;99.90;;;;;;4927242;28;20384;-78
2023/07/25 01:08:52;;;;;;;8.30;4.03;;;13.70;99.90;;;;;;4962289;28;20128;-78
2023/07/25 01:11:19;;;;;;;5.72;3.70;;;13.70;99.90;;;;;;4946289;28;20112;-78
2023/07/25 01:13:45;;;;;;;10.63;3.70;;;13.60;99.90;;;;;;4928229;28;20087;-78
2023/07/25 01:16:14;;;;;;;10.25;3.42;;;13.60;99.90;;;;;;4919626;28;20183;-78
2023/07/25 01:18:40;;;;;;;;;;;13.50;99.90;;;;;;4929989;28;20079;-78
2023/07/25 01:21:06;;;;;;;;;;;13.50;99.90;;;;;;4932709;28;20310;-78
2023/07/25 01:23:32;;;;;;;;;;;13.50;99.90;;;;;;5026687;28;19918;-78
2023/07/25 01:25:58;;;;;;;;;;;13.40;99.90;;;;;;4930856;28;19949;-78
2023/07/25 01:28:23;;;;;;;;;;;13.50;99.90;;;;;;5028035;28;19972;-78
2023/07/25 01:30:49;;;;;;;;;;;13.50;99.90;;;;;;4940724;28;19918;-78
2023/07/25 01:33:14;;;;;;;;;;;13.40;99.90;;;;;;5006462;28;19925;-78
2023/07/25 01:35:40;;;;;;;;;;;13.40;99.90;;;;;;4946183;28;20399;-78
2023/07/25 01:38:05;;;;;;;;;;;13.30;99.90;;;;;;4929861;28;19923;-78
2023/07/25 01:40:31;;;;;;;;;;;13.30;99.90;;;;;;4967039;28;20195;-78
2023/07/25 01:42:56;;;;;;;;;;;13.30;99.90;;;;;;4975738;28;19941;-78
2023/07/25 01:45:22;;;;;;;;;;;13.30;99.90;;;;;;4922129;28;20380;-78
2023/07/25 01:47:47;;;;;;;;;;;13.20;99.90;;;;;;4934482;28;19918;-78
2023/07/25 01:50:13;;;;;;;;;;;13.20;99.90;;;;;;4944490;28;19919;-78
2023/07/25 01:52:38;;;;;;;;;;;13.20;99.90;;;;;;4941838;28;19925;-78
2023/07/25 01:55:04;;;;;;;;;;;13.10;99.90;;;;;;4919507;28;20021;-78
2023/07/25 01:57:29;;;;;;;;;;;13.10;99.90;;;;;;4926856;28;20204;-78
2023/07/25 01:59:56;;;;;;;;;;;13.10;99.90;;;;;;4933598;28;20129;-78
2023/07/25 02:02:22;;;;;;;;;;;13.00;99.90;;;;;;4953091;28;20368;-78
2023/07/25 02:04:47;;;;;;;;;;;13.00;99.90;;;;;;4927966;28;19962;-78
2023/07/25 02:07:13;;;;;;;;;;;13.10;99.90;;;;;;4912626;28;19919;-78
2023/07/25 02:09:38;;;;;;;;;;;13.00;99.90;;;;;;4925504;28;20012;-78
2023/07/25 02:12:05;;;;;;;;;;;13.00;99.90;;;;;;4933158;28;19938;-78
2023/07/25 02:14:30;;;;;;;;;;;13.10;99.90;;;;;;5012600;28;19923;-78
2023/07/25 02:16:56;;;;;;;;;;;13.00;99.90;;;;;;4919879;28;19929;-78
2023/07/25 02:19:21;;;;;;;;;;;13.00;99.90;;;;;;4921295;28;19972;-78
2023/07/25 02:21:47;;;;;;;;;;;13.10;99.90;;;;;;4920323;28;19918;-78
2023/07/25 02:24:12;;;;;;;;;;;13.10;99.90;;;;;;4922627;28;19919;-78
2023/07/25 02:26:38;;;;;;;;;;;13.10;99.90;;;;;;4924414;28;19976;-78
2023/07/25 02:29:03;;;;;;;;;;;13.10;99.90;;;;;;4931707;28;19941;-78
2023/07/25 02:31:29;;;;;;;;;;;13.10;99.90;;;;;;4974893;28;19927;-78
2023/07/25 02:33:55;;;;;;;;;;;13.10;99.90;;;;;;4926787;28;19923;-78
2023/07/25 02:36:20;;;;;;;;;;;13.10;99.90;;;;;;4918356;28;19919;-78
2023/07/25 02:38:46;;;;;;;;;;;13.20;99.90;;;;;;4965260;28;19960;-78
2023/07/25 02:41:11;;;;;;;;;;;13.20;99.90;;;;;;4969604;28;19921;-78
2023/07/25 02:43:37;;;;;;;;;;;13.20;99.90;;;;;;4923272;28;19944;-78
2023/07/25 02:46:02;;;;;;;;;;;13.20;99.90;;;;;;4936954;28;20005;-78
2023/07/25 02:48:28;;;;;;;;;;;13.30;99.90;;;;;;4944969;28;20396;-78
2023/07/25 02:50:53;;;;;;;;;;;13.30;99.90;;;;;;4929510;28;20366;-78
2023/07/25 02:53:19;;;;;;;;;;;13.30;99.90;;;;;;4948808;28;19922;-78
2023/07/25 02:55:44;;;;;;;;;;;13.30;99.90;;;;;;4919090;28;19923;-78
2023/07/25 02:58:12;;;;;;;;;;;13.40;99.90;;;;;;4948606;28;20302;-78
2023/07/25 03:00:38;;;;;;;;;;;13.40;99.90;;;;;;4994656;28;19917;-78
2023/07/25 03:03:03;;;;;;;;;;;13.40;99.90;;;;;;4930491;28;20036;-78
2023/07/25 03:05:29;;;;;;;;;;;13.40;99.90;;;;;;4926487;28;19919;-78
2023/07/25 03:07:55;;;;;;;;;;;13.40;99.90;;;;;;4929230;28;20302;-78
2023/07/25 03:10:20;;;;;;;;;;;13.40;99.90;;;;;;4929030;28;19926;-78
2023/07/25 03:12:46;;;;;;;;;;;13.40;99.90;;;;;;4956728;28;19922;-78
2023/07/25 03:15:11;;;;;;;;;;;13.50;99.90;;;;;;4940442;28;20453;-78
2023/07/25 03:17:37;;;;;;;;;;;13.50;99.90;;;;;;4923471;28;19962;-78
2023/07/25 03:20:02;;;;;;;;;;;13.40;99.90;;;;;;5011988;28;19999;-78
2023/07/25 03:22:28;;;;;;;;;;;13.40;99.90;;;;;;4950160;28;19931;-78
2023/07/25 03:24:53;;;;;;;;;;;13.50;99.90;;;;;;4934229;28;19965;-78
2023/07/25 03:27:19;;;;;;;;;;;13.50;99.90;;;;;;4950120;28;20013;-78
2023/07/25 03:29:45;;;;;;;;;;;13.50;99.90;;;;;;4915023;28;19989;-78
2023/07/25 03:32:10;;;;;;;;;;;13.40;99.90;;;;;;4921894;28;20009;-78
2023/07/25 03:34:36;;;;;;;;;;;13.50;99.90;;;;;;4931699;28;19956;-78
2023/07/25 03:37:01;;;;;;;;;;;13.40;99.90;;;;;;4933261;28;19919;-78
2023/07/25 03:39:28;;;;;;;;;;;13.40;99.90;;;;;;4980237;28;19918;-78
2023/07/25 03:41:53;;;;;;;;;;;13.40;99.90;;;;;;4967460;28;19918;-78
2023/07/25 03:44:20;;;;;;;;;;;13.40;99.90;;;;;;4928419;28;20351;-78
2023/07/25 03:46:45;;;;;;;;;;;13.50;99.90;;;;;;4921171;28;20453;-78
2023/07/25 03:49:11;;;;;;;;;;;13.40;99.90;;;;;;4941198;28;19962;-78
2023/07/25 03:51:37;;;;;;;;;;;13.40;99.90;;;;;;4926876;28;19926;-78
2023/07/25 03:54:03;;;;;;;;;;;13.50;99.90;;;;;;4932416;28;19922;-78
2023/07/25 03:56:28;;;;;;;;;;;13.50;99.90;;;;;;4929219;28;19918;-78
2023/07/25 03:58:54;;;;;;;;;;;13.50;99.90;;;;;;4930869;28;20013;-78
2023/07/25 04:01:19;;;;;;;;;;;13.50;99.90;;;;;;5015928;28;19960;-78
2023/07/25 04:03:45;;;;;;;;;;;13.50;99.90;;;;;;4941962;28;20322;-78
2023/07/25 04:06:11;;;;;;;;;;;13.50;99.90;;;;;;4921000;28;19941;-78
2023/07/25 04:08:36;;;;;;;;;;;13.50;99.90;;;;;;5016830;28;20001;-78
2023/07/25 04:11:02;;;;;;;;;;;13.60;99.90;;;;;;4951085;28;20390;-78
2023/07/25 04:13:27;;;;;;;;;;;13.60;99.90;;;;;;4922533;28;19919;-78
2023/07/25 04:15:53;;;;;;;;;;;13.60;99.90;;;;;;4970440;28;19923;-78
2023/07/25 04:18:18;;;;;;;;;;;13.60;99.90;;;;;;4923047;28;19923;-77
2023/07/25 04:20:44;;;;;;;;;;;13.60;99.90;;;;;;4942247;28;19964;-77
2023/07/25 04:23:10;;;;;;;;;;;13.60;99.90;;;;;;4907441;28;19922;-77
2023/07/25 04:25:35;;;;;;;;;;;13.60;99.90;;;;;;4925460;28;19927;-78
2023/07/25 04:28:01;;;;;;;;;;;13.70;99.90;;;;;;4938630;28;19919;-77
2023/07/25 04:30:26;;;;;;;11.48;4.20;;;13.70;99.90;;;;;;5015510;28;19984;-77
2023/07/25 04:32:52;;;;;;;11.18;4.18;;;13.70;99.90;;;;;;4948745;28;20039;-77
2023/07/25 04:35:18;;;;;;;10.75;4.57;;;13.70;99.90;;;;;;4967707;28;20043;-78
2023/07/25 04:37:43;;;;;;;8.55;4.15;;;13.80;99.90;;;;;;4931411;28;20039;-78
2023/07/25 04:40:09;;;;;;;6.90;3.63;;;13.80;99.90;;;;;;4935634;28;20113;-78
2023/07/25 04:42:35;;;;;;;10.02;4.78;;;13.80;99.90;;;;;;4942195;28;20037;-78
2023/07/25 04:45:03;;;;;;;12.27;4.32;;;13.80;99.90;;;;;;4939581;28;20043;-78
2023/07/25 04:47:28;;;;;;;11.10;4.18;;;13.90;99.90;;;;;;4949220;28;20048;-78
2023/07/25 04:49:54;;;;;;;9.07;4.18;;;13.90;99.90;;;;;;4997911;28;20040;-78
2023/07/25 04:52:19;;;;;;;7.20;4.30;;;13.90;99.90;;;;;;4914102;28;20043;-79
2023/07/25 04:54:45;;;;;;;9.90;4.00;;;13.90;99.90;;;;;;4935751;28;20115;-79
2023/07/25 04:57:11;;;;;;;8.45;4.00;;;14.00;99.90;;;;;;4948047;28;20081;-81
2023/07/25 04:59:36;;;;;;;10.05;4.00;;;14.00;99.90;;;;;;4953459;28;20041;-78
2023/07/25 05:02:02;;;;;;;9.73;4.10;;;14.00;99.90;;;;;;4992842;23;20051;-78
2023/07/25 05:04:28;;;;;;;6.13;3.45;;;14.00;99.90;;;;;;5009244;28;20042;-78
2023/07/25 05:06:54;;;;;;;9.68;3.88;;;14.10;99.90;;;;;;4996587;28;20038;-79
2023/07/25 05:09:20;;;;;;;10.23;4.35;;;14.00;99.90;;;;;;5012788;28;20101;-78
2023/07/25 05:11:51;;;;;;;9.15;3.65;;;14.10;99.90;;;;;;5011433;28;20117;-77
2023/07/25 05:14:17;;;;;;;9.38;3.53;;;14.10;99.90;;;;;;5011809;28;20080;-78
2023/07/25 05:16:43;;;;;;;6.68;3.95;;;14.10;99.90;;;;;;5037346;28;20038;-79
2023/07/25 05:19:08;;;;;;;7.80;3.80;;;14.10;99.90;;;;;;5037896;28;20036;-77
2023/07/25 05:21:34;;;;;;;6.85;3.45;;;14.10;99.90;;;;;;5019786;28;20392;-78
2023/07/25 05:24:00;;;;;;;8.82;4.05;;;14.10;99.90;;;;;;5082126;28;20059;-77
2023/07/25 05:26:25;;;;;;;8.95;3.70;;;14.10;99.90;;;;;;5010881;28;20037;-78
2023/07/25 05:28:51;;;;;;;8.23;3.80;;;14.20;99.90;;;;;;5013057;28;20058;-78
2023/07/25 05:31:17;;;;;;;7.28;3.60;;;14.20;99.90;;;;;;5072180;27;20072;-78
2023/07/25 05:33:43;;;;;;;7.38;3.40;;;14.30;99.90;;;;;;5031126;28;20034;-78
2023/07/25 05:36:08;;;;;;;11.10;3.65;;;14.30;99.90;;;;;;5013463;28;20053;-77
2023/07/25 05:38:34;;;;;;;10.38;3.80;;;14.30;99.90;;;;;;5042898;28;20045;-78
2023/07/25 05:40:59;;;;;;;9.93;3.70;;;14.30;99.90;;;;;;5021798;28;20034;-78
2023/07/25 05:43:25;;;;;;;9.88;3.50;;;14.30;99.90;;;;;;5007184;28;20145;-78
2023/07/25 05:45:51;;;;;;;10.43;3.50;;;14.30;99.90;;;;;;5006634;28;20442;-77
2023/07/25 05:48:16;;;;;;;8.20;3.05;;;14.30;99.90;;;;;;5002607;28;20147;-77
2023/07/25 05:50:42;;;;;;;9.60;3.53;;;14.30;99.90;;;;;;5010670;28;20044;-78
2023/07/25 05:53:08;;;;;;;10.55;3.75;;;14.30;99.90;;;;;;5025719;28;20037;-78
2023/07/25 05:55:33;;;;;;;9.48;3.20;;;14.30;99.90;;;;;;5009636;28;20037;-78
2023/07/25 05:57:59;;;;;;;10.98;3.13;;;14.30;99.90;;;;;;5009660;28;20053;-77
2023/07/25 06:00:26;;;;;;;11.55;3.30;;;14.30;99.90;;;;;;4998998;28;20451;-79
2023/07/25 06:02:52;;;;;;;7.18;3.03;;;14.30;99.90;;;;;;4999962;28;20059;-79
2023/07/25 06:05:17;;;;;;;10.57;3.45;;;14.30;99.90;;;;;;5015210;28;20049;-78
2023/07/25 06:07:43;;;;;;;9.50;2.72;;;14.40;99.90;;;;;;5012735;28;20450;-79
2023/07/25 06:10:09;;;;;;;10.00;2.65;;;14.30;99.90;;;;;;5010524;28;20033;-79
2023/07/25 06:12:34;;;;;;;11.48;2.75;;;14.40;99.90;;;;;;5008965;28;20046;-78
2023/07/25 06:15:00;;;;;;;10.13;3.00;;;14.40;99.90;;;;;;5010501;28;20033;-79
2023/07/25 06:17:26;;;;;;;9.38;2.42;;;14.40;99.90;;;;;;5005286;28;20405;-78
2023/07/25 06:19:51;;;;;;;9.30;2.72;;;14.40;99.90;;;;;;5000435;28;20038;-78
2023/07/25 06:22:17;;;;;;;9.93;2.65;;;14.40;99.90;;;;;;4998022;28;20061;-78
2023/07/25 06:24:44;;;;;;;8.18;2.72;;;14.50;99.90;;;;;;5005746;28;20475;-78
2023/07/25 06:27:10;;;;;;;8.77;2.60;;;14.50;99.90;;;;;;5010607;28;20045;-79
2023/07/25 06:29:35;;;;;;;8.38;2.65;;;14.50;99.90;;;;;;5014512;28;20038;-79
2023/07/25 06:32:01;;;;;;;11.20;2.67;;;14.60;99.90;;;;;;4975781;28;20103;-79
2023/07/25 06:34:27;;;;;;;10.73;2.15;;;14.60;99.90;;;;;;5009583;28;20485;-79
2023/07/25 06:36:55;;;;;;;7.45;2.25;;;14.60;99.90;;;;;;4996485;28;20037;-78
2023/07/25 06:39:21;;;;;;;7.57;2.10;;;14.60;99.90;;;;;;5009429;28;20424;-78
2023/07/25 06:41:46;;;;;;;7.47;2.30;;;14.70;99.90;;;;;;4997583;28;20034;-78
2023/07/25 06:44:12;;;;;;;10.65;3.28;;;14.70;99.90;;;;;;5006307;28;20040;-78
2023/07/25 06:46:38;;;;;;;7.93;2.10;;;14.80;99.90;;;;;;5004617;28;20072;-78
2023/07/25 06:49:03;;;;;;;7.70;2.25;;;14.80;99.90;;;;;;5008547;28;20045;-78
2023/07/25 06:51:29;;;;;;;11.25;2.13;;;14.90;99.90;;;;;;5026229;28;20038;-78
2023/07/25 06:53:54;;;;;;;6.28;2.10;;;14.80;99.90;;;;;;5022991;28;20049;-78
2023/07/25 06:56:20;;;;;;;8.98;2.17;;;14.90;99.90;;;;;;5012956;28;20037;-79
2023/07/25 06:58:46;;;;;;;7.07;1.95;;;14.90;99.90;;;;;;5032452;28;20105;-78
2023/07/25 07:01:11;;;;;;;9.13;1.90;;;14.80;99.90;;;;;;5011393;28;20040;-79
2023/07/25 07:03:37;;;;;;;7.50;1.95;;;14.80;99.90;;;;;;5045099;28;20046;-78
2023/07/25 07:06:03;;;;;;;9.00;1.90;;;14.80;99.90;;;;;;5013229;28;20037;-78
2023/07/25 07:08:28;;;;;;;7.80;1.88;;;14.90;99.90;;;;;;5006009;28;20049;-78
2023/07/25 07:10:54;;;;;;;9.10;1.63;;;14.90;99.90;;;;;;5006961;28;20048;-78
2023/07/25 07:13:21;;;;;;;9.27;1.65;;;14.90;99.90;;;;;;5025413;28;20507;-78
2023/07/25 07:15:47;;;;;;;6.88;1.80;;;14.90;99.90;;;;;;5003899;28;20412;-78
2023/07/25 07:18:13;;;;;;;6.53;1.73;;;15.00;99.90;;;;;;5039814;28;20498;-79
2023/07/25 07:20:39;;;;;;;4.00;1.55;;;15.00;99.90;;;;;;4986541;28;20065;-79
2023/07/25 07:23:05;;;;;;;8.02;1.80;;;15.00;99.90;;;;;;5009722;28;20037;-78
2023/07/25 07:25:30;;;;;;;6.05;1.50;;;15.10;99.90;;;;;;5015344;28;20042;-78
2023/07/25 07:27:56;;;;;;;7.20;1.35;;;15.10;99.90;;;;;;5013872;28;20049;-78
2023/07/25 07:30:22;;;;;;;7.70;1.63;;;15.10;99.90;;;;;;5009084;28;20042;-78
2023/07/25 07:32:47;;;;;;;5.50;1.45;;;15.10;99.90;;;;;;5011678;28;20046;-78
2023/07/25 07:35:13;;;;;;;7.35;1.38;;;15.20;99.90;;;;;;4992476;28;20042;-78
2023/07/25 07:37:39;;;;;;;3.67;1.30;;;15.20;99.90;;;;;;5022644;28;20063;-78
2023/07/25 07:40:05;;;;;;;4.53;1.30;;;15.30;99.90;;;;;;5017332;28;20034;-77
2023/07/25 07:42:31;;;;;;;5.57;1.33;;;15.30;99.90;;;;;;5007567;28;20040;-77
2023/07/25 07:44:56;;;;;;;5.43;1.20;;;15.30;99.90;;;;;;5020570;28;20046;-77
2023/07/25 07:47:22;;;;;;;3.90;1.27;;;15.40;99.90;;;;;;5003172;28;20485;-77
2023/07/25 07:49:48;;;;;;;7.72;1.40;;;15.40;99.90;;;;;;4998041;28;20041;-77
2023/07/25 07:52:13;;;;;;;3.95;1.15;;;15.50;99.90;;;;;;5007773;28;20457;-77
2023/07/25 07:54:39;;;;;;;7.35;1.30;;;15.60;99.90;;;;;;5001610;28;20037;-78
2023/07/25 07:57:05;;;;;;;6.70;1.42;;;15.60;99.90;;;;;;5001668;28;20040;-77
2023/07/25 07:59:30;;;;;;;3.67;1.00;;;15.70;99.90;;;;;;5003992;28;20109;-77
2023/07/25 08:01:56;;;;;;;5.70;1.40;;;15.80;99.90;;;;;;5004962;28;20053;-77
2023/07/25 08:04:22;;;;;;;7.97;1.45;;;15.90;99.90;;;;;;5014440;28;20186;-77
2023/07/25 08:06:47;;;;;;;4.03;1.23;;;16.10;99.90;;;;;;4995431;28;20106;-77
2023/07/25 08:09:13;;;;;;;6.32;1.42;;;16.10;99.90;;;;;;4996965;28;20042;-77
2023/07/25 08:11:39;;;;;;;6.18;1.20;;;16.30;99.90;;;;;;5004441;28;20052;-77
2023/07/25 08:14:04;;;;;;;3.25;1.10;;;16.30;99.90;;;;;;5018622;28;20536;-77
2023/07/25 08:16:30;;;;;;;4.35;1.17;;;16.40;99.90;;;;;;4987267;28;20038;-77
2023/07/25 08:18:55;;;;;;;6.55;1.63;;;16.50;99.90;;;;;;5013663;28;20046;-77
2023/07/25 08:21:21;;;;;;;4.15;1.15;;;16.50;99.90;;;;;;5052690;28;20037;-77
2023/07/25 08:23:47;;;;;;;4.70;1.17;;;16.50;99.90;;;;;;4985792;28;20115;-78
2023/07/25 08:26:12;;;;;;;5.82;1.20;;;16.50;99.90;;;;;;5003457;28;20121;-77
2023/07/25 08:28:38;;;;;;;5.22;1.30;;;16.70;99.90;;;;;;5039116;28;20061;-77
2023/07/25 08:31:07;;;;;;;3.88;1.23;;;16.80;99.90;;;;;;5005728;28;20041;-77
2023/07/25 08:33:34;;;;;;;6.97;1.38;;;16.90;99.90;;;;;;5012334;28;20038;-78
2023/07/25 08:36:01;;;;;;;4.30;1.20;;;17.10;99.90;;;;;;5019836;28;20077;-78
2023/07/25 08:38:27;;;;;;;4.63;1.20;;;17.30;99.90;;;;;;5002876;28;20065;-77
2023/07/25 08:41:19;;;;;;;4.30;0.98;;;17.40;99.90;;;;;;5008658;28;20038;-78
2023/07/25 08:43:44;;;;;;;6.13;1.00;;;17.50;99.90;;;;;;5000475;28;20042;-77
2023/07/25 08:46:13;;;;;;;5.47;1.42;;;17.60;99.90;;;;;;4998427;28;20081;-77
2023/07/25 08:48:41;;;;;;;5.70;1.35;;;17.50;99.90;;;;;;5001235;28;20469;-77
2023/07/25 08:51:19;;;;;;;5.40;1.30;;;17.40;99.90;;;;;;5013344;28;20449;-77
2023/07/25 08:53:56;;;;;;;5.00;1.20;;;17.50;99.90;;;;;;4999303;28;20089;-77
2023/07/25 08:56:22;;;;;;;;;;;17.80;99.90;;;;;;5005121;28;20062;-77
2023/07/25 08:58:49;;;;;;;;;;;18.20;99.90;;;;;;5020155;28;19940;-77
2023/07/25 09:01:15;;;;;;;7.55;1.23;;;18.60;99.90;;;;;;4994925;28;19918;-77
2023/07/25 09:03:42;;;;;;;3.83;1.30;;;18.80;99.90;;;;;;5044294;28;20026;-78
2023/07/25 09:06:10;;;;;;;6.18;1.17;;;18.80;99.90;;;;;;5004375;28;20042;-78
2023/07/25 09:08:36;;;;;;;5.53;1.50;;;19.00;99.90;;;;;;5011778;28;20086;-78
2023/07/25 09:11:03;;;;;;;5.05;1.30;;;19.00;99.90;;;;;;5035724;28;20041;-77
2023/07/25 09:13:29;;;;;;;;;;;19.30;99.70;;;;;;4999291;28;20034;-77
2023/07/25 09:15:55;;;;;;;;;;;19.40;97.50;;;;;;5040225;28;19943;-77
2023/07/25 09:18:20;;;;;;;;;;;19.60;96.60;;;;;;4996800;28;20443;-77
2023/07/25 09:20:46;;;;;;;;;;;19.80;96.70;;;;;;5017635;28;19917;-77
2023/07/25 09:23:19;;;;;;;;;;;19.90;95.60;;;;;;5013596;28;19924;-77
2023/07/25 09:25:44;;;;;;;;;;;19.80;95.00;;;;;;5021870;28;19949;-77
2023/07/25 09:28:10;;;;;;;3.50;1.17;;;19.50;94.60;;;;;;5031636;28;19979;-77
2023/07/25 09:30:35;;;;;;;5.50;1.33;;;19.40;98.80;;;;;;5019568;28;20049;-77
2023/07/25 09:33:01;;;;;;;3.80;1.17;;;19.50;98.30;;;;;;4996002;28;20049;-77
2023/07/25 09:35:26;;;;;;;3.05;1.10;;;19.90;98.30;;;;;;4999615;28;20471;-78
2023/07/25 09:37:55;;;;;;;3.75;1.27;;;20.20;97.10;;;;;;5022205;28;20033;-77
2023/07/25 09:40:21;;;;;;;3.75;1.05;;;20.50;96.60;;;;;;4998839;28;20037;-78
2023/07/25 09:42:50;;;;;;;3.88;1.33;;;20.60;96.30;;;;;;5011442;28;20080;-78
2023/07/25 09:45:16;;;;;;;6.65;1.10;;;20.50;95.20;;;;;;5033370;28;20053;-77
2023/07/25 09:47:42;;;;;;;5.25;1.08;;;20.50;95.30;;;;;;5025843;28;20042;-77
2023/07/25 09:50:08;;;;;;;4.22;1.13;;;20.70;94.90;;;;;;5028692;28;20527;-78
2023/07/25 09:52:42;;;;;;;4.97;1.23;;;20.90;94.50;;;;;;5010407;28;20037;-78
2023/07/25 09:55:08;;;;;;;2.20;1.00;;;20.90;93.30;;;;;;5012489;28;20056;-78
2023/07/25 09:57:35;;;;;;;2.75;1.00;;;20.80;93.80;;;;;;5018888;28;20079;-78
2023/07/25 10:00:05;;;;;;;3.28;1.00;;;20.70;93.60;;;;;;5035095;28;20032;-78
2023/07/25 10:02:32;;;;;;;3.55;1.10;;;20.80;93.30;;;;;;4997277;28;20042;-78
2023/07/25 10:04:59;;;;;;;4.30;0.80;;;21.00;92.80;;;;;;5010469;28;20077;-78
2023/07/25 10:07:25;;;;;;;4.30;1.00;;;21.10;92.40;;;;;;4997282;28;20045;-78
2023/07/25 10:09:56;;;;;;;4.15;1.27;;;21.10;92.20;;;;;;5008199;28;20397;-77
2023/07/25 10:12:22;;;;;;;3.27;1.10;;;21.00;90.90;;;;;;5030083;28;20037;-78
2023/07/25 10:14:48;;;;;;;3.33;0.88;;;20.80;91.00;;;;;;5021804;28;20044;-78
2023/07/25 10:17:14;;;;;;;4.30;1.00;;;20.70;91.10;;;;;;5012411;28;20038;-78
2023/07/25 10:19:54;;;;;;;3.63;1.10;;;20.60;91.10;;;;;;5006533;28;20083;-78
2023/07/25 10:22:37;;;;;;;5.30;1.58;;;20.40;91.10;;;;;;5010830;28;20041;-77
2023/07/25 10:25:10;;;;;;;4.50;1.20;;;20.50;91.40;;;;;;5011007;28;20041;-77
2023/07/25 10:27:35;;;;;;;;;;;20.80;92.30;;;;;;5004647;28;20124;-78
2023/07/25 10:30:01;;;;;;;;;;;21.30;92.10;;;;;;5004128;28;20007;-78
2023/07/25 10:32:56;;;;;;;;;;;21.70;91.10;;;;;;5002870;28;20456;-78
2023/07/25 10:35:52;;;;;;;4.05;1.13;;;21.90;89.20;;;;;;5020995;28;19921;-77
2023/07/25 10:38:42;;;;;;;3.22;1.08;;;21.70;89.90;;;;;;5002663;28;20042;-78
2023/07/25 10:41:08;;;;;;;7.22;1.20;;;21.40;87.90;;;;;;5029210;28;20082;-78
2023/07/25 10:43:46;;;;;;;2.58;1.08;;;21.20;90.40;;;;;;5009712;28;20511;-78
2023/07/25 10:46:14;;;;;;;4.20;1.17;;;21.40;90.50;;;;;;4998732;28;20442;-77
2023/07/25 10:48:52;;;;;;;1.92;0.90;;;21.80;90.60;;;;;;5040241;28;20045;-78
2023/07/25 10:51:18;;;;;;;;;;;22.20;90.60;;;;;;5011811;28;20052;-78
2023/07/25 10:54:08;;;;;;;3.33;1.02;;;22.50;90.20;;;;;;4996716;28;19917;-78
2023/07/25 10:56:33;;;;;;;3.95;1.35;;;22.70;87.80;;;;;;5024701;28;20171;-78
2023/07/25 10:59:08;;;;;;;3.80;1.23;;;22.60;88.10;;;;;;4992828;28;20176;-78
2023/07/25 11:01:50;;;;;;;4.55;1.30;;;22.60;85.20;;;;;;5013551;28;20034;-77
2023/07/25 11:04:31;;;;;;;7.22;1.63;;;22.60;84.80;;;;;;5004597;23;20419;-69
2023/07/25 11:07:09;;;;;;;4.57;1.35;;;22.10;82.80;;;;;;5007215;28;20462;-70
2023/07/25 11:09:43;;;;;;;3.60;1.10;;;22.00;85.20;;;;;;5068519;28;20099;-70
2023/07/25 11:12:10;;;;;;;2.95;1.08;;;22.10;86.00;;;;;;4989724;28;20038;-69
2023/07/25 11:14:43;;;;;;;1.73;1.05;;;22.50;85.70;;;;;;5007293;28;20369;-70
2023/07/25 11:17:12;;;;;;;2.95;1.20;;;22.70;85.00;;;;;;5006840;28;20026;-70
2023/07/25 11:19:37;;;;;;;5.40;1.15;;;23.00;84.70;;;;;;5007761;28;20120;-70
2023/07/25 11:22:12;;;;;;;4.70;1.13;;;23.30;84.10;;;;;;5007503;28;20121;-70
2023/07/25 11:24:41;;;;;;;;;;;23.40;82.30;;;;;;5007496;28;20507;-68
2023/07/25 11:27:07;;;;;;;;;;;23.50;81.60;;;;;;4989814;28;19917;-70
2023/07/25 11:29:33;;;;;;;2.65;1.00;;;23.70;80.50;;;;;;5005893;28;19917;-70
2023/07/25 11:32:01;;;;;;;5.25;1.42;;;23.80;83.70;;;;;;4993417;28;20046;-68
2023/07/25 11:34:27;;;;;;;2.17;1.00;;;24.00;82.30;;;;;;4999254;28;20041;-69
2023/07/25 11:36:54;;;;;;;3.60;0.98;;;24.20;81.50;;;;;;5009625;28;20034;-70
2023/07/25 11:39:21;;;;;;;3.92;1.00;;;24.30;79.30;;;;;;5006614;28;20040;-71
2023/07/25 11:41:47;;;;;;;3.67;1.13;;;24.40;78.10;;;;;;5008856;28;20506;-68
2023/07/25 11:44:18;;;;;;;1.88;1.00;;;24.60;74.90;;;;;;5011290;28;20046;-67
2023/07/25 11:46:50;;;;;;;2.75;1.33;;;24.60;72.30;;;;;;5003059;28;20041;-70
2023/07/25 11:49:16;;;;;;;2.05;1.25;;;24.70;72.70;;;;;;4993436;28;20050;-70
2023/07/25 11:51:43;;;;;;;4.68;0.90;;;24.70;72.90;;;;;;5010164;28;20501;-70
2023/07/25 11:54:09;;;;;;;1.35;0.80;;;24.60;71.80;;;;;;5010266;28;20129;-68
2023/07/25 11:56:36;;;;;;;3.60;1.10;;;24.80;71.90;;;;;;4993015;28;20037;-69
2023/07/25 11:59:02;;;;;;;2.63;1.00;;;24.70;70.20;;;;;;5000914;28;20396;-70
2023/07/25 12:01:32;;;;;;;2.08;0.93;;;24.60;69.10;;;;;;5008587;28;20412;-70
2023/07/25 12:04:01;;;;;;;3.03;1.15;;;24.80;66.00;;;;;;5012120;28;20078;-68
2023/07/25 12:06:31;;;;;;;2.28;0.88;;;24.60;68.90;;;;;;5008845;28;20034;-69
2023/07/25 12:08:58;;;;;;;1.73;1.00;;;24.60;69.60;;;;;;4992870;28;20041;-70
2023/07/25 12:11:24;;;;;;;4.85;1.10;;;24.40;68.90;;;;;;5003553;28;20034;-70
2023/07/25 12:13:55;;;;;;;1.92;1.10;;;24.10;69.00;;;;;;5003934;28;20406;-67
2023/07/25 12:16:32;;;;;;;3.13;1.10;;;23.80;69.40;;;;;;5008076;28;20392;-69
2023/07/25 12:19:07;;;;;;;1.90;0.98;;;23.30;70.40;;;;;;5006347;28;20034;-66
2023/07/25 12:21:34;;;;;;;3.30;1.20;;;23.00;72.10;;;;;;5006595;28;20426;-69
2023/07/25 12:24:03;;;;;;;3.22;1.20;;;22.70;73.30;;;;;;5005415;28;20038;-68
2023/07/25 12:26:44;;;;;;;4.97;1.08;;;22.70;74.30;;;;;;5001298;28;20035;-69
2023/07/25 12:29:21;;;;;;;5.07;1.20;;;22.70;75.50;;;;;;5005733;28;20038;-69
2023/07/25 12:31:48;;;;;;;3.95;1.17;;;22.60;75.20;;;;;;5003855;28;20033;-70
2023/07/25 12:34:18;;;;;;;4.93;1.30;;;22.40;75.50;;;;;;5003160;28;20085;-69
2023/07/25 12:36:45;;;;;;;4.68;1.42;;;22.20;75.60;;;;;;5001952;28;20034;-67
2023/07/25 12:39:11;;;;;;;2.15;1.10;;;22.00;76.80;;;;;;5020404;28;20484;-69
2023/07/25 12:41:37;;;;;;;4.13;1.30;;;21.90;77.40;;;;;;5008297;28;20045;-67
2023/07/25 12:44:04;;;;;;;3.38;1.23;;;21.80;78.20;;;;;;4986026;28;20550;-69
2023/07/25 12:46:29;;;;;;;4.22;1.20;;;21.90;79.50;;;;;;4997591;28;20083;-69
2023/07/25 12:48:55;;;;;;;2.88;1.23;;;22.00;79.30;;;;;;5000294;28;20037;-68
2023/07/25 12:51:21;;;;;;;3.72;1.20;;;22.00;78.00;;;;;;4994682;28;20026;-67
2023/07/25 12:53:47;;;;;;;4.22;1.20;;;21.80;77.90;;;;;;5002403;28;20070;-68
2023/07/25 12:56:13;;;;;;;3.50;1.10;;;21.70;78.70;;;;;;5000663;28;20077;-68
2023/07/25 12:58:39;;;;;;;5.40;1.27;;;21.60;79.10;;;;;;5006230;28;20075;-67
2023/07/25 13:01:04;;;;;;;4.03;1.10;;;21.50;79.50;;;;;;5005022;28;20042;-69
2023/07/25 13:03:30;;;;;;;2.33;1.00;;;21.30;79.60;;;;;;5003876;28;20053;-69
2023/07/25 13:05:56;;;;;;;4.38;1.00;;;21.10;79.60;;;;;;5004595;28;20069;-68
2023/07/25 13:08:22;;;;;;;4.28;1.30;;;20.80;80.80;;;;;;4999532;28;20440;-69